createdAt,value
2022-11-07T12:20:32.219Z,99798.69
2022-11-07T12:22:30.218Z,99790.44
2022-11-07T12:24:28.510Z,99785.34
2022-11-07T12:26:26.741Z,99789.19
2022-11-07T12:28:26.021Z,99788.75
2022-11-07T12:30:24.291Z,99783.72
2022-11-07T12:32:22.321Z,99786.69
2022-11-07T12:34:20.526Z,99790.94
2022-11-07T12:36:18.879Z,99790.06
2022-11-07T12:38:16.945Z,99785.38
2022-11-07T12:40:14.958Z,99780.66
2022-11-07T12:42:13.195Z,99778.78
2022-11-07T12:44:11.707Z,99779.00
2022-11-07T12:46:09.905Z,99780.69
2022-11-07T12:48:15.630Z,99777.91
2022-11-07T12:50:13.831Z,99773.69
2022-11-07T12:52:12.067Z,99770.91
2022-11-07T12:54:16.253Z,99771.72
2022-11-07T12:56:14.795Z,99767.44
2022-11-07T12:58:12.762Z,99771.91
2022-11-07T13:00:11.875Z,99765.41
2022-11-07T13:02:10.005Z,99772.78
2022-11-07T13:04:08.289Z,99766.97
2022-11-07T13:06:06.793Z,99759.00
2022-11-07T13:08:04.804Z,99759.81
2022-11-07T13:10:02.805Z,99767.13
2022-11-07T13:12:01.049Z,99766.47
2022-11-07T13:13:59.049Z,99762.09
2022-11-07T13:16:26.676Z,99760.69
2022-11-07T13:18:15.307Z,99759.25
2022-11-07T13:20:13.329Z,99762.22
2022-11-07T13:22:11.539Z,99760.09
2022-11-07T13:24:09.573Z,99765.94
2022-11-07T13:26:32.431Z,99765.94
2022-11-07T13:28:25.927Z,99758.69
2022-11-07T13:30:24.174Z,99760.13
2022-11-07T13:32:22.524Z,99768.22
2022-11-07T13:34:20.543Z,99761.66
2022-11-07T13:36:18.771Z,99758.72
2022-11-07T13:38:17.057Z,99755.78
2022-11-07T13:40:15.320Z,99765.31
2022-11-07T13:42:13.561Z,99757.28
2022-11-07T13:44:11.792Z,99768.31
2022-11-07T13:46:10.024Z,99766.06
2022-11-07T13:48:08.231Z,99765.31
2022-11-07T13:50:06.323Z,99763.13
2022-11-07T13:52:04.389Z,99767.50
2022-11-07T13:54:02.587Z,99760.97
2022-11-07T13:56:00.569Z,99767.50
2022-11-07T13:57:58.599Z,99759.47
2022-11-07T14:51:00.143Z,99768.25
2022-11-07T14:52:58.141Z,99757.00
2022-11-07T14:54:56.271Z,99756.91
2022-11-07T14:56:54.363Z,99758.38
2022-11-07T14:58:52.707Z,99752.41
2022-11-07T15:00:50.691Z,99747.81
2022-11-07T15:02:48.824Z,99752.63
2022-11-07T15:04:47.042Z,99750.81
2022-11-07T15:06:45.216Z,99750.31
2022-11-07T15:08:43.561Z,99747.56
2022-11-07T15:10:41.998Z,99747.00
2022-11-07T15:12:39.991Z,99747.81
2022-11-07T15:14:38.374Z,99750.06
2022-11-07T15:16:36.546Z,99744.25
2022-11-07T15:18:34.725Z,99740.66
2022-11-07T15:20:32.830Z,99745.06
2022-11-07T15:22:31.231Z,99739.19
2022-11-07T15:24:29.265Z,99740.66
2022-11-07T15:26:27.470Z,99732.50
2022-11-07T15:28:25.513Z,99735.41
2022-11-07T15:30:23.930Z,99734.63
2022-11-07T15:32:21.895Z,99736.81
2022-11-07T15:34:39.067Z,99731.63
2022-11-07T15:36:41.102Z,99730.09
2022-11-07T15:38:39.380Z,99735.22
2022-11-07T15:40:37.557Z,99727.84
2022-11-07T15:42:35.780Z,99718.97
2022-11-07T15:44:34.017Z,99725.53
2022-11-07T15:46:32.271Z,99721.09
2022-11-07T15:48:30.256Z,99722.47
2022-11-07T15:50:28.277Z,99726.84
2022-11-07T15:52:26.469Z,99723.09
2022-11-07T15:54:25.600Z,99721.59
2022-11-07T15:56:23.952Z,99725.91
2022-11-07T15:58:22.093Z,99720.75
2022-11-07T16:00:20.223Z,99721.41
2022-11-07T16:02:18.568Z,99714.06
2022-11-07T16:04:16.958Z,99723.53
2022-11-07T16:06:15.046Z,99722.72
2022-11-07T16:08:13.469Z,99719.72
2022-11-07T16:10:11.948Z,99716.75
2022-11-07T16:12:10.299Z,99719.63
2022-11-07T16:14:38.080Z,99715.19
2022-11-07T16:16:26.354Z,99724.66
2022-11-07T16:18:24.452Z,99719.47
2022-11-07T16:20:22.680Z,99715.75
2022-11-07T16:22:20.896Z,99723.03
2022-11-07T16:24:18.989Z,99717.84
2022-11-07T16:26:16.990Z,99711.91
2022-11-07T16:28:15.425Z,99709.66
2022-11-07T16:30:13.660Z,99713.25
2022-11-07T16:32:16.458Z,99722.00
2022-11-07T16:34:15.869Z,99719.00
2022-11-07T16:36:13.890Z,99727.03
2022-11-07T16:38:11.906Z,99726.19
2022-11-07T16:40:09.947Z,99727.63
2022-11-07T16:42:07.959Z,99722.44
2022-11-07T16:44:06.039Z,99720.19
2022-11-07T16:46:04.372Z,99731.09
2022-11-07T16:48:02.381Z,99728.09
2022-11-07T16:50:00.423Z,99729.50
2022-11-07T16:51:58.561Z,99730.19
2022-11-07T16:53:56.816Z,99732.31
2022-11-07T16:55:54.853Z,99732.22
2022-11-07T16:57:52.892Z,99734.38
2022-11-07T16:59:52.396Z,99737.97
2022-11-07T17:01:50.959Z,99736.47
2022-11-07T17:03:49.286Z,99740.78
2022-11-07T17:05:47.519Z,99739.25
2022-11-07T17:07:45.483Z,99734.81
2022-11-07T17:09:43.565Z,99741.31
2022-11-07T17:11:41.799Z,99742.03
2022-11-07T17:13:40.006Z,99750.78
2022-11-07T17:15:38.175Z,99747.75
2022-11-07T17:17:36.315Z,99760.19
2022-11-07T17:19:34.345Z,99765.22
2022-11-07T17:21:32.760Z,99762.28
2022-11-07T17:23:31.044Z,99759.25
2022-11-07T17:25:29.408Z,99759.22
2022-11-07T17:27:27.499Z,99760.69
2022-11-07T17:29:25.924Z,99761.34
2022-11-07T17:31:24.184Z,99757.66
2022-11-07T17:33:22.425Z,99759.09
2022-11-07T17:35:32.227Z,99754.00
2022-11-07T17:37:30.794Z,99755.41
2022-11-07T17:39:28.965Z,99754.66
2022-11-07T17:41:29.881Z,99756.06
2022-11-07T17:43:27.916Z,99753.84
2022-11-07T17:45:25.981Z,99755.34
2022-11-07T17:47:24.357Z,99742.13
2022-11-07T17:49:23.208Z,99754.56
2022-11-07T17:51:21.203Z,99746.50
2022-11-07T17:53:19.264Z,99748.69
2022-11-07T17:55:17.297Z,99742.81
2022-11-07T17:57:15.337Z,99742.78
2022-11-07T17:59:13.509Z,99742.78
2022-11-07T18:01:11.546Z,99743.50
2022-11-07T18:03:09.723Z,99749.34
2022-11-07T18:05:07.880Z,99748.59
2022-11-07T18:07:05.927Z,99744.91
2022-11-07T18:09:04.111Z,99743.47
2022-11-07T18:11:02.130Z,99742.66
2022-11-07T18:13:00.129Z,99745.56
2022-11-07T18:14:58.362Z,99753.59
2022-11-07T18:16:56.305Z,99751.41
2022-11-07T18:18:54.302Z,99755.75
2022-11-07T18:20:52.308Z,99754.25
2022-11-07T18:22:50.360Z,99754.97
2022-11-07T18:24:48.600Z,99757.16
2022-11-07T18:26:46.621Z,99757.84
2022-11-07T18:28:44.719Z,99746.84
2022-11-07T18:30:42.738Z,99742.44
2022-11-07T18:32:40.771Z,99748.97
2022-11-07T18:34:38.797Z,99746.03
2022-11-07T18:36:38.377Z,99738.69
2022-11-07T18:38:36.457Z,99736.47
2022-11-07T18:40:34.719Z,99732.06
2022-11-07T18:42:32.759Z,99738.59
2022-11-07T18:44:30.765Z,99742.25
2022-11-07T18:46:28.750Z,99740.75
2022-11-07T18:48:26.727Z,99737.84
2022-11-07T18:50:24.749Z,99731.25
2022-11-07T18:52:22.781Z,99731.97
2022-11-07T18:54:22.295Z,99727.59
2022-11-07T18:56:20.543Z,99734.13
2022-11-07T18:58:18.824Z,99731.97
2022-11-07T19:00:18.100Z,99731.97
2022-11-07T19:02:17.306Z,99737.81
2022-11-07T19:04:15.776Z,99739.97
2022-11-07T19:06:13.875Z,99737.81
2022-11-07T19:08:12.068Z,99738.56
2022-11-07T19:10:10.115Z,99731.97
2022-11-07T19:12:08.477Z,99748.06
2022-11-07T19:14:06.497Z,99742.22
2022-11-07T19:16:04.907Z,99740.75
2022-11-07T19:18:02.883Z,99747.34
2022-11-07T19:20:01.989Z,99746.63
2022-11-07T19:22:00.019Z,99745.19
2022-11-07T19:23:58.313Z,99746.66
2022-11-07T19:25:56.400Z,99748.84
2022-11-07T19:27:55.528Z,99748.09
2022-11-07T19:29:53.606Z,99745.19
2022-11-07T19:31:51.662Z,99750.28
2022-11-07T19:33:49.662Z,99741.50
2022-11-07T19:35:47.698Z,99746.63
2022-11-07T19:37:45.683Z,99735.66
2022-11-07T19:39:43.702Z,99737.84
2022-11-07T19:41:41.949Z,99737.84
2022-11-07T19:43:40.081Z,99742.22
2022-11-07T19:45:38.057Z,99737.81
2022-11-07T19:47:36.067Z,99736.31
2022-11-07T19:49:34.087Z,99738.50
2022-11-07T19:51:32.076Z,99745.09
2022-11-07T19:53:30.160Z,99742.88
2022-11-07T19:55:28.608Z,99739.22
2022-11-07T19:57:26.627Z,99735.53
2022-11-07T19:59:24.659Z,99748.66
2022-11-07T20:01:22.951Z,99739.16
2022-11-07T20:03:21.529Z,99745.72
2022-11-07T20:05:24.293Z,99747.88
2022-11-07T20:07:22.385Z,99746.34
2022-11-07T20:09:20.345Z,99746.41
2022-11-07T20:11:18.589Z,99735.38
2022-11-07T20:13:17.060Z,99739.06
2022-11-07T20:15:15.543Z,99745.63
2022-11-07T20:17:13.583Z,99744.88
2022-11-07T20:19:11.865Z,99749.28
2022-11-07T20:21:12.789Z,99744.88
2022-11-07T20:23:10.905Z,99739.75
2022-11-07T20:25:08.926Z,99736.09
2022-11-07T20:27:07.249Z,99746.34
2022-11-07T20:29:05.341Z,99741.19
2022-11-07T20:31:03.364Z,99741.19
2022-11-07T20:33:01.602Z,99742.69
2022-11-07T20:34:59.638Z,99744.88
2022-11-07T20:36:57.678Z,99742.69
2022-11-07T20:38:55.887Z,99742.69
2022-11-07T20:40:53.922Z,99736.84
2022-11-07T20:42:51.940Z,99738.31
2022-11-07T20:44:50.159Z,99743.44
2022-11-07T20:46:48.296Z,99737.59
2022-11-07T20:48:47.106Z,99741.97
2022-11-07T20:50:45.524Z,99742.72
2022-11-07T20:52:43.731Z,99742.72
2022-11-07T20:54:41.776Z,99743.47
2022-11-07T20:56:40.282Z,99747.88
2022-11-07T20:58:38.580Z,99749.31
2022-11-07T21:00:36.678Z,99744.22
2022-11-07T21:02:35.040Z,99747.88
2022-11-07T21:04:50.103Z,99750.06
2022-11-07T21:06:51.306Z,99742.72
2022-11-07T21:08:49.391Z,99746.41
2022-11-07T21:10:47.408Z,99739.06
2022-11-07T21:12:45.626Z,99748.56
2022-11-07T21:14:43.835Z,99737.59
2022-11-07T21:16:42.258Z,99733.19
2022-11-07T21:18:40.723Z,99736.09
2022-11-07T21:20:38.909Z,99733.91
2022-11-07T21:22:37.137Z,99731.69
2022-11-07T21:24:35.144Z,99731.66
2022-11-07T21:26:33.430Z,99723.63
2022-11-07T21:28:31.463Z,99725.09
2022-11-07T21:30:29.643Z,99722.13
2022-11-07T21:32:28.073Z,99723.56
2022-11-07T21:34:26.328Z,99716.97
2022-11-07T21:36:24.566Z,99714.00
2022-11-07T21:38:22.990Z,99717.69
2022-11-07T21:40:21.044Z,99715.50
2022-11-07T21:42:19.327Z,99713.25
2022-11-07T21:44:17.350Z,99710.34
2022-11-07T21:46:15.466Z,99705.19
2022-11-07T21:48:13.501Z,99711.03
2022-11-07T21:50:38.327Z,99711.84
2022-11-07T21:52:32.612Z,99710.34
2022-11-07T21:54:30.637Z,99708.84
2022-11-07T21:56:28.649Z,99706.69
2022-11-07T21:58:26.701Z,99704.50
2022-11-07T22:00:24.719Z,99711.09
2022-11-07T22:02:22.880Z,99703.75
2022-11-07T22:04:20.990Z,99706.00
2022-11-07T22:06:20.017Z,99698.69
2022-11-07T22:08:23.450Z,99695.75
2022-11-07T22:10:21.847Z,99696.50
2022-11-07T22:12:20.057Z,99683.38
2022-11-07T22:14:18.081Z,99687.06
2022-11-07T22:16:16.186Z,99694.38
2022-11-07T22:18:14.225Z,99682.72
2022-11-07T22:20:12.258Z,99683.47
2022-11-07T22:22:10.273Z,99678.38
2022-11-07T22:24:08.306Z,99680.53
2022-11-07T22:26:06.330Z,99673.28
2022-11-07T22:28:04.537Z,99670.34
2022-11-07T22:30:02.619Z,99670.34
2022-11-07T22:32:00.637Z,99661.56
2022-11-07T22:33:59.035Z,99657.16
2022-11-07T22:35:57.947Z,99660.09
2022-11-07T22:37:56.182Z,99651.31
2022-11-07T22:39:54.211Z,99654.22
2022-11-07T22:41:52.176Z,99648.38
2022-11-07T22:43:50.200Z,99646.91
2022-11-07T22:45:48.240Z,99646.91
2022-11-07T22:47:46.570Z,99657.09
2022-11-07T22:49:44.920Z,99653.47
2022-11-07T22:51:42.917Z,99649.03
2022-11-07T22:53:40.896Z,99649.03
2022-11-07T22:55:38.916Z,99635.84
2022-11-07T22:57:37.133Z,99638.78
2022-11-07T22:59:35.459Z,99629.94
2022-11-07T23:01:33.735Z,99639.50
2022-11-07T23:03:31.791Z,99635.09
2022-11-07T23:05:29.814Z,99629.94
2022-11-07T23:07:27.822Z,99629.19
2022-11-07T23:09:25.872Z,99632.81
2022-11-07T23:13:41.928Z,99632.75
2022-11-07T23:15:39.907Z,99618.84
2022-11-07T23:17:38.079Z,99624.72
2022-11-07T23:19:36.111Z,99621.72
2022-11-07T23:21:34.446Z,99622.44
2022-11-07T23:23:32.867Z,99621.69
2022-11-07T23:25:31.294Z,99620.19
2022-11-07T23:27:29.344Z,99612.13
2022-11-07T23:29:27.354Z,99614.31
2022-11-07T23:31:25.523Z,99613.59
2022-11-07T23:33:23.504Z,99610.66
2022-11-07T23:35:21.800Z,99610.59
2022-11-07T23:37:20.164Z,99603.28
2022-11-07T23:39:18.380Z,99604.72
2022-11-07T23:41:16.775Z,99603.22
2022-11-07T23:43:14.756Z,99606.16
2022-11-07T23:45:30.839Z,99604.66
2022-11-07T23:47:46.594Z,99611.97
2022-11-07T23:50:02.134Z,99603.88
2022-11-07T23:52:00.447Z,99598.69
2022-11-07T23:54:16.306Z,99596.50
2022-11-07T23:56:14.368Z,99593.50
2022-11-07T23:58:30.006Z,99596.44
